sensor_id;sensor_type;location;lat;lon;timestamp;temperature;humidity
5210;DHT22;2624;48.048;11.706;2022-08-19T00:03:04;21.00;99.90
5210;DHT22;2624;48.048;11.706;2022-08-19T00:08:07;20.80;99.90
5210;DHT22;2624;48.048;11.706;2022-08-19T00:13:10;20.90;99.90
5210;DHT22;2624;48.048;11.706;2022-08-19T00:18:12;21.00;99.90
5210;DHT22;2624;48.048;11.706;2022-08-19T00:23:13;21.10;99.90
5210;DHT22;2624;48.048;11.706;2022-08-19T00:28:16;20.90;99.90
5210;DHT22;2624;48.048;11.706;2022-08-19T00:33:18;20.70;99.90
5210;DHT22;2624;48.048;11.706;2022-08-19T00:38:20;20.70;99.90
5210;DHT22;2624;48.048;11.706;2022-08-19T00:43:25;20.50;99.90
5210;DHT22;2624;48.048;11.706;2022-08-19T00:48:27;20.70;99.90
5210;DHT22;2624;48.048;11.706;2022-08-19T00:53:30;20.70;99.90
5210;DHT22;2624;48.048;11.706;2022-08-19T00:58:36;20.70;99.90
5210;DHT22;2624;48.048;11.706;2022-08-19T01:03:37;20.60;99.90
5210;DHT22;2624;48.048;11.706;2022-08-19T01:08:39;20.40;99.90
5210;DHT22;2624;48.048;11.706;2022-08-19T01:13:42;20.50;99.90
5210;DHT22;2624;48.048;11.706;2022-08-19T01:18:45;20.70;99.90
5210;DHT22;2624;48.048;11.706;2022-08-19T01:23:48;20.60;99.90
5210;DHT22;2624;48.048;11.706;2022-08-19T01:28:53;20.60;99.90
5210;DHT22;2624;48.048;11.706;2022-08-19T01:33:57;20.30;99.90
5210;DHT22;2624;48.048;11.706;2022-08-19T01:39:00;20.20;99.90
5210;DHT22;2624;48.048;11.706;2022-08-19T01:44:04;20.30;99.90
5210;DHT22;2624;48.048;11.706;2022-08-19T01:49:06;20.10;99.90
5210;DHT22;2624;48.048;11.706;2022-08-19T01:54:14;20.30;99.90
5210;DHT22;2624;48.048;11.706;2022-08-19T01:59:19;20.30;99.90
5210;DHT22;2624;48.048;11.706;2022-08-19T02:04:21;20.50;99.90
5210;DHT22;2624;48.048;11.706;2022-08-19T02:09:25;20.20;99.90
5210;DHT22;2624;48.048;11.706;2022-08-19T02:14:27;20.10;99.90
5210;DHT22;2624;48.048;11.706;2022-08-19T02:19:28;20.40;99.90
5210;DHT22;2624;48.048;11.706;2022-08-19T02:24:33;20.20;99.90
5210;DHT22;2624;48.048;11.706;2022-08-19T02:29:35;20.20;99.90
5210;DHT22;2624;48.048;11.706;2022-08-19T02:34:37;20.30;99.90
5210;DHT22;2624;48.048;11.706;2022-08-19T02:39:40;20.50;99.90
5210;DHT22;2624;48.048;11.706;2022-08-19T02:44:41;20.50;99.90
5210;DHT22;2624;48.048;11.706;2022-08-19T02:49:43;20.20;99.90
5210;DHT22;2624;48.048;11.706;2022-08-19T02:54:46;20.30;99.90
5210;DHT22;2624;48.048;11.706;2022-08-19T02:59:48;20.10;99.90
5210;DHT22;2624;48.048;11.706;2022-08-19T03:04:50;20.00;99.90
5210;DHT22;2624;48.048;11.706;2022-08-19T03:09:53;19.90;99.90
5210;DHT22;2624;48.048;11.706;2022-08-19T03:14:55;20.00;99.90
5210;DHT22;2624;48.048;11.706;2022-08-19T03:19:57;20.00;99.90
5210;DHT22;2624;48.048;11.706;2022-08-19T03:25:00;20.00;99.90
5210;DHT22;2624;48.048;11.706;2022-08-19T03:30:02;19.90;99.90
5210;DHT22;2624;48.048;11.706;2022-08-19T03:35:04;20.00;99.90
5210;DHT22;2624;48.048;11.706;2022-08-19T03:40:09;20.10;99.90
5210;DHT22;2624;48.048;11.706;2022-08-19T03:45:10;20.10;99.90
5210;DHT22;2624;48.048;11.706;2022-08-19T03:50:12;20.00;99.90
5210;DHT22;2624;48.048;11.706;2022-08-19T03:55:15;20.10;99.90
5210;DHT22;2624;48.048;11.706;2022-08-19T04:00:17;20.00;99.90
5210;DHT22;2624;48.048;11.706;2022-08-19T04:05:19;19.80;99.90
5210;DHT22;2624;48.048;11.706;2022-08-19T04:10:22;19.90;99.90
5210;DHT22;2624;48.048;11.706;2022-08-19T04:15:24;19.80;99.90
5210;DHT22;2624;48.048;11.706;2022-08-19T04:20:26;19.90;99.90
5210;DHT22;2624;48.048;11.706;2022-08-19T04:25:35;19.70;99.90
5210;DHT22;2624;48.048;11.706;2022-08-19T04:30:38;19.50;99.90
5210;DHT22;2624;48.048;11.706;2022-08-19T04:35:42;19.50;99.90
5210;DHT22;2624;48.048;11.706;2022-08-19T04:40:47;19.50;99.90
5210;DHT22;2624;48.048;11.706;2022-08-19T04:46:08;19.50;99.90
5210;DHT22;2624;48.048;11.706;2022-08-19T04:51:12;19.30;99.90
5210;DHT22;2624;48.048;11.706;2022-08-19T04:56:16;19.30;99.90
5210;DHT22;2624;48.048;11.706;2022-08-19T05:01:23;19.50;99.90
5210;DHT22;2624;48.048;11.706;2022-08-19T05:06:25;19.70;99.90
5210;DHT22;2624;48.048;11.706;2022-08-19T05:11:33;19.60;99.90
5210;DHT22;2624;48.048;11.706;2022-08-19T05:16:35;19.60;99.90
5210;DHT22;2624;48.048;11.706;2022-08-19T05:21:38;19.80;99.90
5210;DHT22;2624;48.048;11.706;2022-08-19T05:26:59;19.50;99.90
5210;DHT22;2624;48.048;11.706;2022-08-19T05:32:04;19.70;99.90
5210;DHT22;2624;48.048;11.706;2022-08-19T05:37:09;19.80;99.90
5210;DHT22;2624;48.048;11.706;2022-08-19T05:42:12;19.70;99.90
5210;DHT22;2624;48.048;11.706;2022-08-19T05:47:14;19.50;99.90
5210;DHT22;2624;48.048;11.706;2022-08-19T05:52:17;19.70;99.90
5210;DHT22;2624;48.048;11.706;2022-08-19T05:57:20;19.70;99.90
5210;DHT22;2624;48.048;11.706;2022-08-19T06:02:22;19.30;99.90
5210;DHT22;2624;48.048;11.706;2022-08-19T06:07:24;19.60;99.90
5210;DHT22;2624;48.048;11.706;2022-08-19T06:12:27;19.60;99.90
5210;DHT22;2624;48.048;11.706;2022-08-19T06:17:31;19.30;99.90
5210;DHT22;2624;48.048;11.706;2022-08-19T06:22:38;19.10;99.90
5210;DHT22;2624;48.048;11.706;2022-08-19T06:27:41;19.10;99.90
5210;DHT22;2624;48.048;11.706;2022-08-19T06:32:43;19.30;99.90
5210;DHT22;2624;48.048;11.706;2022-08-19T06:37:45;19.10;99.90
5210;DHT22;2624;48.048;11.706;2022-08-19T06:42:48;19.20;99.90
5210;DHT22;2624;48.048;11.706;2022-08-19T06:47:50;19.30;99.90
5210;DHT22;2624;48.048;11.706;2022-08-19T06:52:56;19.30;99.90
5210;DHT22;2624;48.048;11.706;2022-08-19T06:58:01;19.50;99.90
5210;DHT22;2624;48.048;11.706;2022-08-19T07:03:04;19.50;99.90
5210;DHT22;2624;48.048;11.706;2022-08-19T07:08:05;19.60;99.90
5210;DHT22;2624;48.048;11.706;2022-08-19T07:13:09;19.70;99.90
5210;DHT22;2624;48.048;11.706;2022-08-19T07:18:10;19.80;99.90
5210;DHT22;2624;48.048;11.706;2022-08-19T07:23:12;19.80;99.90
5210;DHT22;2624;48.048;11.706;2022-08-19T07:28:15;19.90;99.90
5210;DHT22;2624;48.048;11.706;2022-08-19T07:33:19;19.80;99.90
5210;DHT22;2624;48.048;11.706;2022-08-19T07:38:21;19.90;99.90
5210;DHT22;2624;48.048;11.706;2022-08-19T07:43:24;19.80;99.90
5210;DHT22;2624;48.048;11.706;2022-08-19T07:48:28;19.80;99.90
5210;DHT22;2624;48.048;11.706;2022-08-19T07:53:31;19.90;99.90
5210;DHT22;2624;48.048;11.706;2022-08-19T07:58:39;19.70;99.90
5210;DHT22;2624;48.048;11.706;2022-08-19T08:03:41;19.70;99.90
5210;DHT22;2624;48.048;11.706;2022-08-19T08:09:03;19.70;99.90
5210;DHT22;2624;48.048;11.706;2022-08-19T08:14:21;19.60;99.90
5210;DHT22;2624;48.048;11.706;2022-08-19T08:19:25;19.60;99.90
5210;DHT22;2624;48.048;11.706;2022-08-19T08:24:29;19.70;99.90
5210;DHT22;2624;48.048;11.706;2022-08-19T08:29:32;19.50;99.90
5210;DHT22;2624;48.048;11.706;2022-08-19T08:34:34;19.30;99.90
5210;DHT22;2624;48.048;11.706;2022-08-19T08:39:37;19.40;99.90
5210;DHT22;2624;48.048;11.706;2022-08-19T08:44:45;19.30;99.90
5210;DHT22;2624;48.048;11.706;2022-08-19T08:49:53;19.20;99.90
5210;DHT22;2624;48.048;11.706;2022-08-19T08:54:58;19.30;99.90
5210;DHT22;2624;48.048;11.706;2022-08-19T09:00:06;19.40;99.90
5210;DHT22;2624;48.048;11.706;2022-08-19T09:05:09;19.40;99.90
5210;DHT22;2624;48.048;11.706;2022-08-19T09:10:19;19.50;99.90
5210;DHT22;2624;48.048;11.706;2022-08-19T09:15:29;19.50;99.90
5210;DHT22;2624;48.048;11.706;2022-08-19T09:20:32;19.40;99.90
5210;DHT22;2624;48.048;11.706;2022-08-19T09:25:34;19.50;99.90
5210;DHT22;2624;48.048;11.706;2022-08-19T09:30:40;19.60;99.90
5210;DHT22;2624;48.048;11.706;2022-08-19T09:35:42;19.60;99.90
5210;DHT22;2624;48.048;11.706;2022-08-19T09:40:44;19.70;99.90
5210;DHT22;2624;48.048;11.706;2022-08-19T09:45:47;19.70;99.90
5210;DHT22;2624;48.048;11.706;2022-08-19T09:50:49;19.80;99.90
5210;DHT22;2624;48.048;11.706;2022-08-19T09:55:51;19.80;99.90
5210;DHT22;2624;48.048;11.706;2022-08-19T10:00:55;20.00;99.90
5210;DHT22;2624;48.048;11.706;2022-08-19T10:05:58;19.90;99.90
5210;DHT22;2624;48.048;11.706;2022-08-19T10:11:02;20.00;99.90
5210;DHT22;2624;48.048;11.706;2022-08-19T10:16:07;20.00;99.90
5210;DHT22;2624;48.048;11.706;2022-08-19T10:21:12;19.90;99.90
5210;DHT22;2624;48.048;11.706;2022-08-19T10:26:16;20.00;99.90
5210;DHT22;2624;48.048;11.706;2022-08-19T10:31:21;20.20;99.90
5210;DHT22;2624;48.048;11.706;2022-08-19T10:36:25;20.30;99.90
5210;DHT22;2624;48.048;11.706;2022-08-19T10:41:29;20.40;99.90
5210;DHT22;2624;48.048;11.706;2022-08-19T10:46:35;20.40;99.90
5210;DHT22;2624;48.048;11.706;2022-08-19T10:51:37;20.50;99.90
5210;DHT22;2624;48.048;11.706;2022-08-19T10:56:57;20.50;99.90
5210;DHT22;2624;48.048;11.706;2022-08-19T11:02:01;20.60;99.90
5210;DHT22;2624;48.048;11.706;2022-08-19T11:07:03;20.70;99.90
5210;DHT22;2624;48.048;11.706;2022-08-19T11:12:06;20.70;99.90
5210;DHT22;2624;48.048;11.706;2022-08-19T11:17:10;20.70;99.90
5210;DHT22;2624;48.048;11.706;2022-08-19T11:22:14;20.60;99.90
5210;DHT22;2624;48.048;11.706;2022-08-19T11:27:16;20.80;99.90
5210;DHT22;2624;48.048;11.706;2022-08-19T11:32:19;21.00;99.90
5210;DHT22;2624;48.048;11.706;2022-08-19T11:37:20;21.00;99.90
5210;DHT22;2624;48.048;11.706;2022-08-19T11:42:22;20.90;99.90
5210;DHT22;2624;48.048;11.706;2022-08-19T11:47:42;21.10;99.90
5210;DHT22;2624;48.048;11.706;2022-08-19T11:52:46;21.40;99.90
5210;DHT22;2624;48.048;11.706;2022-08-19T11:57:48;21.70;99.90
5210;DHT22;2624;48.048;11.706;2022-08-19T12:02:51;21.70;99.90
5210;DHT22;2624;48.048;11.706;2022-08-19T12:07:52;21.80;99.90
5210;DHT22;2624;48.048;11.706;2022-08-19T12:12:54;21.90;99.90
5210;DHT22;2624;48.048;11.706;2022-08-19T12:17:58;21.70;99.90
5210;DHT22;2624;48.048;11.706;2022-08-19T12:22:59;21.50;99.90
5210;DHT22;2624;48.048;11.706;2022-08-19T12:28:01;21.50;99.90
5210;DHT22;2624;48.048;11.706;2022-08-19T12:33:05;21.50;99.90
5210;DHT22;2624;48.048;11.706;2022-08-19T12:38:06;21.40;99.90
5210;DHT22;2624;48.048;11.706;2022-08-19T12:43:08;21.40;99.90
5210;DHT22;2624;48.048;11.706;2022-08-19T12:48:13;21.40;99.90
5210;DHT22;2624;48.048;11.706;2022-08-19T12:53:15;21.30;99.90
5210;DHT22;2624;48.048;11.706;2022-08-19T12:58:18;21.30;99.90
5210;DHT22;2624;48.048;11.706;2022-08-19T13:03:21;21.30;99.90
5210;DHT22;2624;48.048;11.706;2022-08-19T13:08:27;21.40;99.90
5210;DHT22;2624;48.048;11.706;2022-08-19T13:13:29;21.40;99.90
5210;DHT22;2624;48.048;11.706;2022-08-19T13:18:32;21.50;99.90
5210;DHT22;2624;48.048;11.706;2022-08-19T13:23:35;21.70;99.90
5210;DHT22;2624;48.048;11.706;2022-08-19T13:28:37;21.70;99.90
5210;DHT22;2624;48.048;11.706;2022-08-19T13:33:58;21.80;99.90
5210;DHT22;2624;48.048;11.706;2022-08-19T13:39:00;21.90;99.90
5210;DHT22;2624;48.048;11.706;2022-08-19T13:44:02;22.00;99.90
5210;DHT22;2624;48.048;11.706;2022-08-19T13:49:05;21.90;99.90
5210;DHT22;2624;48.048;11.706;2022-08-19T13:54:07;21.90;99.90
5210;DHT22;2624;48.048;11.706;2022-08-19T13:59:09;22.10;99.90
5210;DHT22;2624;48.048;11.706;2022-08-19T14:04:12;22.00;99.90
5210;DHT22;2624;48.048;11.706;2022-08-19T14:09:14;22.00;99.90
5210;DHT22;2624;48.048;11.706;2022-08-19T14:14:15;22.00;99.90
5210;DHT22;2624;48.048;11.706;2022-08-19T14:19:18;22.10;99.90
5210;DHT22;2624;48.048;11.706;2022-08-19T14:24:20;22.20;99.90
5210;DHT22;2624;48.048;11.706;2022-08-19T14:29:22;22.20;99.90
5210;DHT22;2624;48.048;11.706;2022-08-19T14:34:25;22.20;99.90
5210;DHT22;2624;48.048;11.706;2022-08-19T14:39:27;22.30;99.90
5210;DHT22;2624;48.048;11.706;2022-08-19T14:44:29;22.20;99.90
5210;DHT22;2624;48.048;11.706;2022-08-19T14:49:36;22.20;99.90
5210;DHT22;2624;48.048;11.706;2022-08-19T14:54:37;22.30;99.90
5210;DHT22;2624;48.048;11.706;2022-08-19T14:59:39;22.30;99.90
5210;DHT22;2624;48.048;11.706;2022-08-19T15:04:42;22.20;99.90
5210;DHT22;2624;48.048;11.706;2022-08-19T15:09:44;22.20;99.90
5210;DHT22;2624;48.048;11.706;2022-08-19T15:14:46;22.10;99.90
5210;DHT22;2624;48.048;11.706;2022-08-19T15:19:52;22.10;99.90
5210;DHT22;2624;48.048;11.706;2022-08-19T15:24:54;22.00;99.90
5210;DHT22;2624;48.048;11.706;2022-08-19T15:29:56;22.10;99.90
5210;DHT22;2624;48.048;11.706;2022-08-19T15:35:00;22.00;99.90
5210;DHT22;2624;48.048;11.706;2022-08-19T15:40:04;22.10;99.90
5210;DHT22;2624;48.048;11.706;2022-08-19T15:45:07;22.10;99.90
5210;DHT22;2624;48.048;11.706;2022-08-19T15:50:18;22.00;99.90
5210;DHT22;2624;48.048;11.706;2022-08-19T15:55:24;22.00;99.90
5210;DHT22;2624;48.048;11.706;2022-08-19T16:00:26;21.90;99.90
5210;DHT22;2624;48.048;11.706;2022-08-19T16:05:46;21.90;99.90
5210;DHT22;2624;48.048;11.706;2022-08-19T16:11:05;21.90;99.90
5210;DHT22;2624;48.048;11.706;2022-08-19T16:16:07;22.00;99.90
5210;DHT22;2624;48.048;11.706;2022-08-19T16:21:11;22.00;99.90
5210;DHT22;2624;48.048;11.706;2022-08-19T16:26:14;21.90;99.90
5210;DHT22;2624;48.048;11.706;2022-08-19T16:31:16;21.90;99.90
5210;DHT22;2624;48.048;11.706;2022-08-19T16:36:20;21.90;99.90
5210;DHT22;2624;48.048;11.706;2022-08-19T16:41:24;21.80;99.90
5210;DHT22;2624;48.048;11.706;2022-08-19T16:46:27;21.70;99.90
5210;DHT22;2624;48.048;11.706;2022-08-19T16:51:30;21.60;99.90
5210;DHT22;2624;48.048;11.706;2022-08-19T16:56:33;21.60;99.90
5210;DHT22;2624;48.048;11.706;2022-08-19T17:01:35;21.70;99.90
5210;DHT22;2624;48.048;11.706;2022-08-19T17:06:38;21.70;99.90
5210;DHT22;2624;48.048;11.706;2022-08-19T17:11:40;21.70;99.90
5210;DHT22;2624;48.048;11.706;2022-08-19T17:16:42;21.40;99.90
5210;DHT22;2624;48.048;11.706;2022-08-19T17:21:46;21.40;99.90
5210;DHT22;2624;48.048;11.706;2022-08-19T17:26:47;21.50;99.90
5210;DHT22;2624;48.048;11.706;2022-08-19T17:31:49;21.50;99.90
5210;DHT22;2624;48.048;11.706;2022-08-19T17:36:52;21.40;99.90
5210;DHT22;2624;48.048;11.706;2022-08-19T17:41:55;21.40;99.90
5210;DHT22;2624;48.048;11.706;2022-08-19T17:46:57;21.40;99.90
5210;DHT22;2624;48.048;11.706;2022-08-19T17:52:00;21.30;99.90
5210;DHT22;2624;48.048;11.706;2022-08-19T17:57:02;21.20;99.90
5210;DHT22;2624;48.048;11.706;2022-08-19T18:02:04;21.00;99.90
5210;DHT22;2624;48.048;11.706;2022-08-19T18:07:08;20.70;99.90
5210;DHT22;2624;48.048;11.706;2022-08-19T18:12:12;20.70;99.90
5210;DHT22;2624;48.048;11.706;2022-08-19T18:17:16;20.80;99.90
5210;DHT22;2624;48.048;11.706;2022-08-19T18:22:25;20.70;99.90
5210;DHT22;2624;48.048;11.706;2022-08-19T18:27:27;20.60;99.90
5210;DHT22;2624;48.048;11.706;2022-08-19T18:32:30;20.70;99.90
5210;DHT22;2624;48.048;11.706;2022-08-19T18:37:34;20.80;99.90
5210;DHT22;2624;48.048;11.706;2022-08-19T18:42:41;20.40;99.90
5210;DHT22;2624;48.048;11.706;2022-08-19T18:48:00;20.30;99.90
5210;DHT22;2624;48.048;11.706;2022-08-19T18:53:21;20.60;99.90
5210;DHT22;2624;48.048;11.706;2022-08-19T18:58:23;20.50;99.90
5210;DHT22;2624;48.048;11.706;2022-08-19T19:03:31;20.40;99.90
5210;DHT22;2624;48.048;11.706;2022-08-19T19:08:34;20.20;99.90
5210;DHT22;2624;48.048;11.706;2022-08-19T19:13:37;20.30;99.90
5210;DHT22;2624;48.048;11.706;2022-08-19T19:18:40;20.10;99.90
5210;DHT22;2624;48.048;11.706;2022-08-19T19:23:44;20.40;99.90
5210;DHT22;2624;48.048;11.706;2022-08-19T19:28:47;20.40;99.90
5210;DHT22;2624;48.048;11.706;2022-08-19T19:33:49;20.50;99.90
5210;DHT22;2624;48.048;11.706;2022-08-19T19:38:52;20.40;99.90
5210;DHT22;2624;48.048;11.706;2022-08-19T19:43:55;20.40;99.90
5210;DHT22;2624;48.048;11.706;2022-08-19T19:49:01;20.30;99.90
5210;DHT22;2624;48.048;11.706;2022-08-19T19:54:04;20.30;99.90
5210;DHT22;2624;48.048;11.706;2022-08-19T19:59:06;20.40;99.90
5210;DHT22;2624;48.048;11.706;2022-08-19T20:04:07;20.20;99.90
5210;DHT22;2624;48.048;11.706;2022-08-19T20:09:11;19.90;99.90
5210;DHT22;2624;48.048;11.706;2022-08-19T20:14:18;20.10;99.90
5210;DHT22;2624;48.048;11.706;2022-08-19T20:19:23;20.20;99.90
5210;DHT22;2624;48.048;11.706;2022-08-19T20:24:30;20.10;99.90
5210;DHT22;2624;48.048;11.706;2022-08-19T20:29:32;19.90;99.90
5210;DHT22;2624;48.048;11.706;2022-08-19T20:34:34;20.00;99.90
5210;DHT22;2624;48.048;11.706;2022-08-19T20:39:38;19.90;99.90
5210;DHT22;2624;48.048;11.706;2022-08-19T20:44:39;19.90;99.90
5210;DHT22;2624;48.048;11.706;2022-08-19T20:49:41;19.80;99.90
5210;DHT22;2624;48.048;11.706;2022-08-19T20:54:44;19.90;99.90
5210;DHT22;2624;48.048;11.706;2022-08-19T20:59:46;19.60;99.90
5210;DHT22;2624;48.048;11.706;2022-08-19T21:04:47;19.80;99.90
5210;DHT22;2624;48.048;11.706;2022-08-19T21:09:51;19.60;99.90
5210;DHT22;2624;48.048;11.706;2022-08-19T21:14:52;19.70;99.90
5210;DHT22;2624;48.048;11.706;2022-08-19T21:19:54;19.80;99.90
5210;DHT22;2624;48.048;11.706;2022-08-19T21:24:57;19.80;99.90
5210;DHT22;2624;48.048;11.706;2022-08-19T21:29:59;19.70;99.90
5210;DHT22;2624;48.048;11.706;2022-08-19T21:35:01;19.60;99.90
5210;DHT22;2624;48.048;11.706;2022-08-19T21:40:05;19.40;99.90
5210;DHT22;2624;48.048;11.706;2022-08-19T21:45:07;19.40;99.90
5210;DHT22;2624;48.048;11.706;2022-08-19T21:50:10;19.60;99.90
5210;DHT22;2624;48.048;11.706;2022-08-19T21:55:14;19.20;99.90
5210;DHT22;2624;48.048;11.706;2022-08-19T22:00:19;19.30;99.90
5210;DHT22;2624;48.048;11.706;2022-08-19T22:05:22;19.10;99.90
5210;DHT22;2624;48.048;11.706;2022-08-19T22:10:27;19.00;99.90
5210;DHT22;2624;48.048;11.706;2022-08-19T22:15:30;19.40;99.90
5210;DHT22;2624;48.048;11.706;2022-08-19T22:20:32;19.60;99.90
5210;DHT22;2624;48.048;11.706;2022-08-19T22:25:37;19.40;99.90
5210;DHT22;2624;48.048;11.706;2022-08-19T22:30:41;19.20;99.90
5210;DHT22;2624;48.048;11.706;2022-08-19T22:35:44;19.40;99.90
5210;DHT22;2624;48.048;11.706;2022-08-19T22:40:49;19.30;99.90
5210;DHT22;2624;48.048;11.706;2022-08-19T22:45:53;19.10;99.90
5210;DHT22;2624;48.048;11.706;2022-08-19T22:50:55;19.00;99.90
5210;DHT22;2624;48.048;11.706;2022-08-19T22:56:17;18.80;99.90
5210;DHT22;2624;48.048;11.706;2022-08-19T23:01:21;18.90;99.90
5210;DHT22;2624;48.048;11.706;2022-08-19T23:06:24;18.90;99.90
5210;DHT22;2624;48.048;11.706;2022-08-19T23:11:27;18.80;99.90
5210;DHT22;2624;48.048;11.706;2022-08-19T23:16:29;18.80;99.90
5210;DHT22;2624;48.048;11.706;2022-08-19T23:21:30;18.70;99.90
5210;DHT22;2624;48.048;11.706;2022-08-19T23:26:34;18.80;99.90
5210;DHT22;2624;48.048;11.706;2022-08-19T23:31:35;18.80;99.90
5210;DHT22;2624;48.048;11.706;2022-08-19T23:36:37;18.80;99.90
5210;DHT22;2624;48.048;11.706;2022-08-19T23:41:40;18.80;99.90
5210;DHT22;2624;48.048;11.706;2022-08-19T23:46:42;18.80;99.90
5210;DHT22;2624;48.048;11.706;2022-08-19T23:51:44;18.80;99.90
5210;DHT22;2624;48.048;11.706;2022-08-19T23:56:47;18.60;99.90
